createdAt,value
2023-01-24T00:00:01.778Z,12.25
2023-01-24T00:01:34.522Z,12.45
2023-01-24T00:03:12.720Z,11.77
2023-01-24T00:04:47.767Z,11.48
2023-01-24T00:06:20.495Z,11.48
2023-01-24T00:07:53.389Z,12.60
2023-01-24T00:09:26.494Z,12.85
2023-01-24T00:11:02.223Z,13.10
2023-01-24T00:12:34.913Z,12.63
2023-01-24T00:14:07.650Z,12.00
2023-01-24T00:15:40.399Z,12.68
2023-01-24T00:17:13.121Z,12.82
2023-01-24T00:18:46.378Z,13.23
2023-01-24T00:20:20.685Z,13.18
2023-01-24T00:21:52.457Z,12.60
2023-01-24T00:23:25.160Z,12.60
2023-01-24T00:24:57.872Z,12.82
2023-01-24T00:26:30.555Z,13.07
2023-01-24T00:28:03.254Z,13.05
2023-01-24T00:29:36.026Z,12.45
2023-01-24T00:31:09.023Z,12.18
2023-01-24T00:32:41.782Z,12.55
2023-01-24T00:34:14.500Z,12.57
2023-01-24T00:35:47.594Z,11.68
2023-01-24T00:37:20.302Z,12.68
2023-01-24T00:38:53.010Z,12.43
2023-01-24T00:40:25.697Z,12.23
2023-01-24T00:41:58.405Z,12.35
2023-01-24T00:43:31.148Z,12.38
2023-01-24T00:45:04.009Z,12.48
2023-01-24T00:46:36.685Z,12.48
2023-01-24T00:48:10.166Z,12.85
2023-01-24T00:49:42.869Z,13.02
2023-01-24T00:51:16.137Z,12.95
2023-01-24T00:52:50.110Z,12.98
2023-01-24T00:54:23.017Z,12.68
2023-01-24T00:55:56.414Z,12.85
2023-01-24T00:57:29.115Z,12.50
2023-01-24T00:59:01.799Z,13.15
2023-01-24T01:00:33.533Z,12.90
2023-01-24T01:02:08.447Z,12.90
2023-01-24T01:03:41.267Z,12.60
2023-01-24T01:05:13.034Z,12.95
2023-01-24T01:06:47.218Z,12.50
2023-01-24T01:08:18.946Z,13.45
2023-01-24T01:09:51.614Z,12.80
2023-01-24T01:11:24.452Z,12.98
2023-01-24T01:12:57.154Z,12.40
2023-01-24T01:14:29.837Z,12.88
2023-01-24T01:16:02.901Z,13.27
2023-01-24T01:17:35.770Z,13.48
2023-01-24T01:19:08.481Z,13.35
2023-01-24T01:20:41.251Z,13.13
2023-01-24T01:22:15.267Z,12.93
2023-01-24T01:23:48.187Z,13.82
2023-01-24T01:25:21.249Z,13.68
2023-01-24T01:26:54.199Z,13.48
2023-01-24T01:28:26.921Z,13.02
2023-01-24T01:29:59.618Z,12.52
2023-01-24T01:31:32.564Z,12.93
2023-01-24T01:33:04.370Z,13.38
2023-01-24T01:34:37.275Z,12.68
2023-01-24T01:36:10.079Z,13.88
2023-01-24T01:37:43.213Z,13.68
2023-01-24T01:39:15.928Z,13.38
2023-01-24T01:40:48.859Z,13.05
2023-01-24T01:42:20.635Z,12.55
2023-01-24T01:44:11.045Z,12.88
2023-01-24T01:45:45.978Z,12.45
2023-01-24T01:47:27.645Z,12.50
2023-01-24T01:49:04.596Z,13.32
2023-01-24T01:50:40.313Z,12.60
2023-01-24T01:52:13.054Z,13.50
2023-01-24T01:53:50.389Z,13.38
2023-01-24T01:55:27.004Z,12.55
2023-01-24T01:57:03.218Z,13.02
2023-01-24T01:58:36.633Z,12.77
2023-01-24T02:00:13.423Z,12.27
2023-01-24T02:01:46.749Z,13.13
2023-01-24T02:03:39.829Z,12.82
2023-01-24T02:05:15.330Z,12.32
2023-01-24T02:06:58.380Z,13.23
2023-01-24T02:08:34.123Z,12.75
2023-01-24T02:10:09.048Z,13.13
2023-01-24T02:11:41.594Z,12.70
2023-01-24T02:13:14.447Z,13.02
2023-01-24T02:15:06.232Z,14.38
2023-01-24T02:16:38.733Z,13.43
2023-01-24T02:18:12.570Z,12.65
2023-01-24T02:20:19.816Z,13.40
2023-01-24T02:21:57.758Z,13.43
2023-01-24T02:23:37.108Z,13.05
2023-01-24T02:25:18.221Z,12.30
2023-01-24T02:26:52.308Z,13.45
2023-01-24T02:28:25.024Z,13.27
2023-01-24T02:29:58.720Z,13.35
2023-01-24T02:31:31.836Z,13.48
2023-01-24T02:33:11.595Z,12.90
2023-01-24T02:34:44.336Z,13.52
2023-01-24T02:36:22.363Z,13.48
2023-01-24T02:37:56.205Z,13.50
2023-01-24T02:39:31.591Z,13.52
2023-01-24T02:41:07.582Z,13.30
2023-01-24T02:42:42.042Z,12.40
2023-01-24T02:44:18.547Z,13.00
2023-01-24T02:45:51.364Z,13.52
2023-01-24T02:47:23.542Z,13.20
2023-01-24T02:48:56.214Z,12.30
2023-01-24T02:50:50.613Z,13.27
2023-01-24T02:52:40.713Z,11.85
2023-01-24T02:54:13.402Z,13.27
2023-01-24T02:56:00.110Z,13.32
2023-01-24T02:57:50.226Z,13.00
2023-01-24T02:59:24.296Z,13.13
2023-01-24T03:00:57.122Z,13.25
2023-01-24T03:02:29.961Z,13.35
2023-01-24T03:04:02.807Z,13.02
2023-01-24T03:05:54.175Z,13.23
2023-01-24T03:07:26.971Z,12.52
2023-01-24T03:08:59.700Z,14.68
2023-01-24T03:10:31.425Z,13.43
2023-01-24T03:12:23.427Z,13.82
2023-01-24T03:14:13.838Z,13.88
2023-01-24T03:16:06.079Z,13.93
2023-01-24T03:17:56.586Z,13.07
2023-01-24T03:19:46.997Z,14.30
2023-01-24T03:21:37.421Z,13.73
2023-01-24T03:23:27.806Z,13.45
2023-01-24T03:25:18.104Z,14.48
2023-01-24T03:27:08.541Z,14.05
2023-01-24T03:28:58.759Z,13.32
2023-01-24T03:30:49.116Z,14.50
2023-01-24T03:32:40.968Z,14.68
2023-01-24T03:34:32.481Z,14.27
2023-01-24T03:36:07.479Z,14.10
2023-01-24T03:37:57.666Z,13.57
2023-01-24T03:39:48.100Z,14.65
2023-01-24T03:41:20.833Z,14.65
2023-01-24T03:42:53.499Z,14.18
2023-01-24T03:44:26.187Z,14.23
2023-01-24T03:45:58.934Z,14.23
2023-01-24T03:47:32.031Z,15.02
2023-01-24T03:49:04.741Z,14.80
2023-01-24T03:50:56.770Z,15.45
2023-01-24T03:52:28.838Z,14.05
2023-01-24T03:54:01.536Z,15.52
2023-01-24T03:55:33.272Z,14.25
2023-01-24T03:57:05.968Z,15.77
2023-01-24T03:58:38.842Z,14.80
2023-01-24T04:00:12.937Z,15.57
2023-01-24T04:01:45.693Z,14.93
2023-01-24T04:03:19.838Z,14.73
2023-01-24T04:05:09.911Z,15.27
2023-01-24T04:06:42.599Z,13.95
2023-01-24T04:08:15.800Z,15.63
2023-01-24T04:09:47.563Z,15.07
2023-01-24T04:11:20.317Z,14.70
2023-01-24T04:12:53.021Z,13.82
2023-01-24T04:14:25.699Z,14.82
2023-01-24T04:15:58.384Z,15.05
2023-01-24T04:17:31.111Z,14.25
2023-01-24T04:19:05.116Z,15.77
2023-01-24T04:20:38.730Z,15.20
2023-01-24T04:22:10.522Z,15.30
2023-01-24T04:23:43.238Z,14.52
2023-01-24T04:25:16.085Z,14.57
2023-01-24T04:26:47.820Z,15.23
2023-01-24T04:28:20.508Z,15.40
2023-01-24T04:29:53.199Z,16.00
2023-01-24T04:31:26.061Z,14.35
2023-01-24T04:32:58.884Z,16.30
2023-01-24T04:34:32.935Z,16.23
2023-01-24T04:36:06.562Z,14.77
2023-01-24T04:37:39.240Z,14.82
2023-01-24T04:39:11.969Z,16.05
2023-01-24T04:40:44.706Z,15.07
2023-01-24T04:42:17.409Z,14.95
2023-01-24T04:43:50.110Z,16.23
2023-01-24T04:45:23.071Z,14.35
2023-01-24T04:46:56.036Z,14.25
2023-01-24T04:48:28.766Z,15.25
2023-01-24T04:50:01.988Z,15.77
2023-01-24T04:51:34.746Z,16.33
2023-01-24T04:53:07.442Z,15.13
2023-01-24T04:54:40.128Z,15.30
2023-01-24T04:56:12.209Z,15.57
2023-01-24T04:57:44.916Z,15.52
2023-01-24T04:59:16.661Z,14.80
2023-01-24T05:00:50.548Z,15.10
2023-01-24T05:02:23.238Z,15.40
2023-01-24T05:03:59.620Z,15.38
2023-01-24T05:05:33.697Z,14.10
2023-01-24T05:07:06.555Z,15.57
2023-01-24T05:08:39.256Z,14.13
2023-01-24T05:10:12.510Z,15.02
2023-01-24T05:11:45.238Z,14.20
2023-01-24T05:13:17.935Z,15.07
2023-01-24T05:14:50.632Z,14.48
2023-01-24T05:16:23.323Z,13.93
2023-01-24T05:17:55.996Z,14.68
2023-01-24T05:19:30.044Z,14.45
2023-01-24T05:21:09.008Z,14.52
2023-01-24T05:22:41.698Z,14.27
2023-01-24T05:24:14.437Z,13.48
2023-01-24T05:25:47.136Z,14.80
2023-01-24T05:27:19.874Z,14.35
2023-01-24T05:28:53.428Z,15.20
2023-01-24T05:30:26.141Z,14.02
2023-01-24T05:31:58.870Z,14.32
2023-01-24T05:33:31.145Z,13.82
2023-01-24T05:35:03.878Z,13.65
2023-01-24T05:36:37.901Z,13.88
2023-01-24T05:38:09.768Z,12.95
2023-01-24T05:39:42.461Z,14.27
2023-01-24T05:41:17.817Z,13.18
2023-01-24T05:42:50.501Z,13.95
2023-01-24T05:44:23.215Z,13.63
2023-01-24T05:46:00.232Z,13.90
2023-01-24T05:47:32.959Z,14.10
2023-01-24T05:49:05.701Z,13.55
2023-01-24T05:50:38.687Z,13.70
2023-01-24T05:52:12.764Z,14.00
2023-01-24T05:53:46.003Z,12.75
2023-01-24T05:55:18.832Z,13.63
2023-01-24T05:56:51.568Z,13.55
2023-01-24T05:58:24.309Z,12.80
2023-01-24T05:59:57.091Z,13.55
2023-01-24T06:01:29.925Z,12.75
2023-01-24T06:03:04.192Z,13.88
2023-01-24T06:04:36.045Z,13.35
2023-01-24T06:06:10.059Z,14.10
2023-01-24T06:07:44.072Z,13.00
2023-01-24T06:09:16.763Z,13.82
2023-01-24T06:10:48.849Z,14.70
2023-01-24T06:12:21.552Z,14.82
2023-01-24T06:13:55.631Z,18.45
2023-01-24T06:15:28.326Z,15.07
2023-01-24T06:17:01.013Z,15.60
2023-01-24T06:18:34.413Z,20.00
2023-01-24T06:20:08.502Z,17.83
2023-01-24T06:21:46.209Z,15.40
2023-01-24T06:23:26.052Z,17.27
2023-01-24T06:24:59.231Z,13.88
2023-01-24T06:26:32.850Z,18.80
2023-01-24T06:28:05.177Z,15.63
2023-01-24T06:29:38.371Z,18.92
2023-01-24T06:31:21.781Z,16.25
2023-01-24T06:33:16.690Z,14.73
2023-01-24T06:35:08.849Z,14.43
2023-01-24T06:36:53.237Z,13.98
2023-01-24T06:38:28.187Z,14.85
2023-01-24T06:40:01.489Z,13.68
2023-01-24T06:41:34.675Z,13.23
2023-01-24T06:43:08.327Z,15.07
2023-01-24T06:44:41.540Z,13.57
2023-01-24T06:46:15.401Z,13.15
2023-01-24T06:47:48.335Z,12.93
2023-01-24T06:49:21.037Z,12.65
2023-01-24T06:50:53.763Z,13.00
2023-01-24T06:52:26.506Z,13.25
2023-01-24T06:54:03.814Z,12.63
2023-01-24T06:55:37.006Z,12.52
2023-01-24T06:57:09.808Z,13.52
2023-01-24T06:58:42.604Z,13.13
2023-01-24T07:00:16.495Z,13.95
2023-01-24T07:01:49.246Z,12.05
2023-01-24T07:03:22.538Z,12.00
2023-01-24T07:04:55.275Z,12.60
2023-01-24T07:06:28.159Z,12.80
2023-01-24T07:08:01.217Z,11.95
2023-01-24T07:09:35.345Z,12.95
2023-01-24T07:11:08.096Z,14.13
2023-01-24T07:12:44.086Z,13.05
2023-01-24T07:14:16.916Z,12.15
2023-01-24T07:15:49.637Z,12.45
2023-01-24T07:17:22.778Z,12.43
2023-01-24T07:18:56.165Z,14.40
2023-01-24T07:20:29.333Z,14.75
2023-01-24T07:22:02.564Z,14.15
2023-01-24T07:23:36.022Z,14.25
2023-01-24T07:25:15.689Z,13.25
2023-01-24T07:26:51.905Z,13.15
2023-01-24T07:28:24.683Z,13.73
2023-01-24T07:29:57.580Z,13.32
2023-01-24T07:31:30.388Z,12.35
2023-01-24T07:33:03.166Z,11.73
2023-01-24T07:34:35.861Z,12.15
2023-01-24T07:36:16.166Z,12.65
2023-01-24T07:37:48.869Z,11.95
2023-01-24T07:39:21.561Z,11.65
2023-01-24T07:40:55.598Z,12.40
2023-01-24T07:42:28.303Z,12.23
2023-01-24T07:44:05.706Z,11.90
2023-01-24T07:45:39.424Z,12.73
2023-01-24T07:47:12.213Z,10.60
2023-01-24T07:48:44.892Z,11.05
2023-01-24T07:50:18.317Z,11.43
2023-01-24T07:51:51.102Z,10.75
2023-01-24T07:53:23.782Z,12.15
2023-01-24T07:54:56.504Z,10.95
2023-01-24T07:56:30.756Z,11.13
2023-01-24T07:58:04.834Z,11.50
2023-01-24T07:59:39.391Z,12.23
2023-01-24T08:01:18.287Z,16.25
2023-01-24T08:02:51.544Z,12.85
2023-01-24T08:04:24.241Z,13.40
2023-01-24T08:05:56.973Z,12.20
2023-01-24T08:07:29.671Z,11.73
2023-01-24T08:09:02.593Z,11.82
2023-01-24T08:10:35.277Z,12.80
2023-01-24T08:12:09.434Z,11.20
2023-01-24T08:13:42.160Z,12.70
2023-01-24T08:15:14.897Z,11.15
2023-01-24T08:16:47.635Z,10.57
2023-01-24T08:18:21.714Z,10.63
2023-01-24T08:19:56.823Z,10.52
2023-01-24T08:21:29.956Z,13.65
2023-01-24T08:23:02.661Z,11.80
2023-01-24T08:24:35.610Z,11.90
2023-01-24T08:26:08.428Z,11.93
2023-01-24T08:27:44.428Z,11.63
2023-01-24T08:29:17.744Z,11.68
2023-01-24T08:30:50.452Z,11.45
2023-01-24T08:32:23.187Z,11.95
2023-01-24T08:33:55.930Z,12.00
2023-01-24T08:35:28.674Z,11.68
2023-01-24T08:37:01.381Z,11.00
2023-01-24T08:38:34.233Z,11.23
2023-01-24T08:40:08.586Z,11.68
2023-01-24T08:41:44.293Z,12.40
2023-01-24T08:43:18.638Z,12.02
2023-01-24T08:44:51.358Z,12.63
2023-01-24T08:46:24.296Z,12.52
2023-01-24T08:47:57.039Z,13.23
2023-01-24T08:49:29.752Z,11.70
2023-01-24T08:51:05.101Z,11.90
2023-01-24T08:52:37.840Z,12.30
2023-01-24T08:54:10.573Z,11.85
2023-01-24T08:55:43.325Z,12.15
2023-01-24T08:57:16.204Z,12.15
2023-01-24T08:58:50.281Z,12.32
2023-01-24T09:00:23.277Z,10.85
2023-01-24T09:01:56.028Z,11.95
2023-01-24T09:03:28.948Z,11.45
2023-01-24T09:05:01.699Z,11.70
2023-01-24T09:06:34.431Z,12.05
2023-01-24T09:08:07.554Z,11.02
2023-01-24T09:09:40.270Z,11.07
2023-01-24T09:11:13.869Z,11.70
2023-01-24T09:12:46.557Z,13.02
2023-01-24T09:14:20.648Z,11.75
2023-01-24T09:15:53.815Z,11.65
2023-01-24T09:17:26.812Z,11.35
2023-01-24T09:18:59.509Z,10.45
2023-01-24T09:20:32.367Z,11.75
2023-01-24T09:22:05.059Z,11.48
2023-01-24T09:23:37.798Z,11.82
2023-01-24T09:25:11.188Z,11.63
2023-01-24T09:26:45.478Z,10.43
2023-01-24T09:28:20.920Z,11.40
2023-01-24T09:29:54.943Z,10.55
2023-01-24T09:31:27.808Z,11.18
2023-01-24T09:33:00.705Z,11.05
2023-01-24T09:34:33.453Z,11.45
2023-01-24T09:36:05.716Z,10.70
2023-01-24T09:37:38.450Z,11.15
2023-01-24T09:39:11.162Z,11.02
2023-01-24T09:40:46.907Z,9.65
2023-01-24T09:42:31.551Z,8.68
2023-01-24T09:44:09.136Z,9.25
2023-01-24T09:45:51.472Z,8.75
2023-01-24T09:47:27.407Z,9.20
2023-01-24T09:49:05.344Z,7.85
2023-01-24T09:50:43.150Z,8.52
2023-01-24T09:52:25.693Z,7.53
2023-01-24T09:54:01.575Z,7.95
2023-01-24T09:55:38.229Z,8.80
2023-01-24T09:57:15.205Z,8.63
2023-01-24T09:59:00.336Z,9.07
2023-01-24T10:00:36.305Z,9.23
2023-01-24T10:02:18.716Z,9.07
2023-01-24T10:03:51.446Z,8.98
2023-01-24T10:05:28.659Z,8.85
2023-01-24T10:07:15.750Z,8.95
2023-01-24T10:08:57.325Z,8.35
2023-01-24T10:10:50.182Z,7.45
2023-01-24T10:12:40.659Z,8.18
2023-01-24T10:14:41.747Z,9.18
2023-01-24T10:16:26.364Z,10.18
2023-01-24T10:18:18.526Z,9.93
2023-01-24T10:20:07.059Z,10.70
2023-01-24T10:22:04.159Z,9.18
2023-01-24T10:23:42.620Z,9.23
2023-01-24T10:25:23.495Z,9.00
2023-01-24T10:26:57.203Z,8.85
2023-01-24T10:28:34.944Z,8.43
2023-01-24T10:30:20.093Z,8.82
2023-01-24T10:31:58.774Z,8.20
2023-01-24T10:33:41.164Z,9.40
2023-01-24T10:35:16.008Z,10.13
2023-01-24T10:36:53.727Z,9.65
2023-01-24T10:38:27.979Z,10.23
2023-01-24T10:40:01.791Z,10.70
2023-01-24T10:41:34.691Z,10.60
2023-01-24T10:43:09.617Z,9.93
2023-01-24T10:44:43.411Z,9.93
2023-01-24T10:46:44.395Z,9.35
2023-01-24T10:48:29.322Z,9.80
2023-01-24T10:50:06.398Z,10.88
2023-01-24T10:51:39.189Z,10.95
2023-01-24T10:53:27.451Z,10.25
2023-01-24T10:55:04.152Z,10.02
2023-01-24T10:56:40.337Z,10.00
2023-01-24T10:58:25.209Z,10.07
2023-01-24T11:00:02.576Z,8.98
2023-01-24T11:01:38.154Z,8.75
2023-01-24T11:03:20.797Z,8.82
2023-01-24T11:04:59.975Z,8.80
2023-01-24T11:06:38.739Z,8.57
2023-01-24T11:08:20.380Z,9.57
2023-01-24T11:09:53.099Z,9.35
2023-01-24T11:11:30.367Z,9.73
2023-01-24T11:13:05.272Z,9.18
2023-01-24T11:14:38.040Z,9.80
2023-01-24T11:16:23.119Z,10.45
2023-01-24T11:17:58.807Z,10.45
2023-01-24T11:19:34.384Z,11.10
2023-01-24T11:21:13.782Z,10.60
2023-01-24T11:22:51.800Z,12.40
2023-01-24T11:24:25.398Z,11.63
2023-01-24T11:26:02.156Z,11.43
2023-01-24T11:27:47.001Z,11.25
2023-01-24T11:29:20.061Z,11.43
2023-01-24T11:30:53.365Z,12.45
2023-01-24T11:32:34.174Z,12.48
2023-01-24T11:34:39.777Z,11.75
2023-01-24T11:36:26.880Z,12.15
2023-01-24T11:38:18.622Z,11.00
2023-01-24T11:39:59.105Z,10.88
2023-01-24T11:41:40.893Z,10.95
2023-01-24T11:43:28.240Z,12.07
2023-01-24T11:45:27.383Z,11.20
2023-01-24T11:47:06.016Z,11.32
2023-01-24T11:48:45.405Z,11.77
2023-01-24T11:50:29.996Z,12.07
2023-01-24T11:52:15.856Z,10.38
2023-01-24T11:54:18.404Z,10.82
2023-01-24T11:56:04.904Z,10.80
2023-01-24T11:57:46.951Z,10.50
2023-01-24T11:59:40.773Z,10.32
2023-01-24T12:01:19.381Z,10.18
2023-01-24T12:03:27.461Z,10.63
2023-01-24T12:05:29.548Z,9.43
2023-01-24T12:07:09.073Z,9.77
2023-01-24T12:08:58.937Z,9.65
2023-01-24T12:10:48.086Z,10.48
2023-01-24T12:12:27.437Z,9.73
2023-01-24T12:14:24.771Z,10.18
2023-01-24T12:16:12.245Z,10.18
2023-01-24T12:18:03.613Z,10.13
2023-01-24T12:19:52.411Z,9.88
2023-01-24T12:21:25.228Z,9.75
2023-01-24T12:23:01.315Z,9.60
2023-01-24T12:24:39.689Z,9.90
2023-01-24T12:26:16.848Z,9.90
2023-01-24T12:27:51.814Z,9.50
2023-01-24T12:29:29.650Z,9.95
2023-01-24T12:31:05.667Z,11.15
2023-01-24T12:32:46.371Z,10.45
2023-01-24T12:34:34.780Z,10.40
2023-01-24T12:36:15.292Z,9.38
2023-01-24T12:38:07.694Z,10.23
2023-01-24T12:39:49.363Z,9.93
2023-01-24T12:41:29.827Z,9.90
2023-01-24T12:43:11.399Z,9.60
2023-01-24T12:44:49.238Z,10.50
2023-01-24T12:46:29.908Z,10.05
2023-01-24T12:48:11.563Z,9.90
2023-01-24T12:49:54.297Z,10.40
2023-01-24T12:51:30.819Z,10.52
2023-01-24T12:53:13.152Z,9.82
2023-01-24T12:54:52.305Z,10.35
2023-01-24T12:56:29.320Z,11.02
2023-01-24T12:58:06.879Z,10.30
2023-01-24T12:59:39.631Z,10.70
2023-01-24T13:01:35.874Z,9.32
2023-01-24T13:03:28.372Z,9.57
2023-01-24T13:05:19.716Z,9.68
2023-01-24T13:07:04.029Z,10.10
2023-01-24T13:08:52.485Z,9.65
2023-01-24T13:10:44.911Z,9.75
2023-01-24T13:12:24.383Z,9.50
2023-01-24T13:14:07.397Z,9.50
2023-01-24T13:15:48.750Z,9.30
2023-01-24T13:17:47.891Z,9.90
2023-01-24T13:19:30.644Z,9.93
2023-01-24T13:21:12.688Z,9.43
2023-01-24T13:22:59.001Z,9.45
2023-01-24T13:24:50.707Z,9.77
2023-01-24T13:26:55.465Z,8.15
2023-01-24T13:28:38.466Z,8.98
2023-01-24T13:30:28.213Z,9.18
2023-01-24T13:32:07.574Z,8.77
2023-01-24T13:33:47.127Z,9.15
2023-01-24T13:35:23.038Z,8.98
2023-01-24T13:36:55.829Z,9.77
2023-01-24T13:38:31.305Z,10.95
2023-01-24T13:40:07.783Z,9.88
2023-01-24T13:41:42.077Z,9.98
2023-01-24T13:43:47.906Z,9.27
2023-01-24T13:45:49.508Z,9.95
2023-01-24T13:47:26.398Z,9.80
2023-01-24T13:49:01.005Z,9.75
2023-01-24T13:50:34.089Z,9.52
2023-01-24T13:52:40.873Z,9.90
2023-01-24T13:54:38.465Z,9.93
2023-01-24T13:56:11.334Z,10.68
2023-01-24T13:57:44.185Z,10.60
2023-01-24T13:59:16.940Z,10.52
2023-01-24T14:00:52.568Z,11.60
2023-01-24T14:02:29.913Z,10.82
2023-01-24T14:04:04.929Z,10.45
2023-01-24T14:05:47.080Z,10.93
2023-01-24T14:07:21.222Z,10.20
2023-01-24T14:09:04.990Z,10.35
2023-01-24T14:10:39.846Z,10.65
2023-01-24T14:12:19.349Z,9.77
2023-01-24T14:14:29.817Z,11.02
2023-01-24T14:16:02.667Z,11.05
2023-01-24T14:17:52.708Z,11.45
2023-01-24T14:19:30.766Z,11.45
2023-01-24T14:21:03.806Z,11.88
2023-01-24T14:22:45.069Z,12.80
2023-01-24T14:24:25.348Z,11.65
2023-01-24T14:26:01.476Z,12.60
2023-01-24T14:27:37.952Z,12.48
2023-01-24T14:29:17.562Z,12.95
2023-01-24T14:30:54.701Z,12.25
2023-01-24T14:32:30.976Z,11.88
2023-01-24T14:34:13.415Z,12.13
2023-01-24T14:36:00.800Z,13.05
2023-01-24T14:37:33.941Z,12.75
2023-01-24T14:39:22.432Z,14.63
2023-01-24T14:40:56.515Z,11.93
2023-01-24T14:42:30.594Z,15.40
2023-01-24T14:44:03.330Z,11.57
2023-01-24T14:45:36.600Z,13.05
2023-01-24T14:47:21.327Z,13.82
2023-01-24T14:48:54.097Z,13.98
2023-01-24T14:50:29.639Z,11.52
2023-01-24T14:52:17.434Z,10.85
2023-01-24T14:53:53.183Z,10.25
2023-01-24T14:55:42.108Z,11.25
2023-01-24T14:57:25.426Z,11.93
2023-01-24T14:59:12.160Z,20.98
2023-01-24T15:00:45.412Z,13.30
2023-01-24T15:02:18.747Z,14.73
2023-01-24T15:03:51.455Z,13.13
2023-01-24T15:05:26.480Z,13.18
2023-01-24T15:07:12.635Z,12.77
2023-01-24T15:08:45.492Z,11.38
2023-01-24T15:10:24.069Z,12.50
2023-01-24T15:11:58.128Z,15.02
2023-01-24T15:13:34.449Z,14.25
2023-01-24T15:15:08.657Z,11.73
2023-01-24T15:16:50.269Z,11.73
2023-01-24T15:18:43.356Z,10.98
2023-01-24T15:20:21.874Z,10.98
2023-01-24T15:21:57.363Z,10.65
2023-01-24T15:23:33.254Z,10.93
2023-01-24T15:25:20.689Z,10.52
2023-01-24T15:26:54.039Z,11.32
2023-01-24T15:28:32.269Z,12.88
2023-01-24T15:30:17.844Z,11.65
2023-01-24T15:31:51.484Z,12.00
2023-01-24T15:33:24.360Z,11.10
2023-01-24T15:35:24.276Z,11.23
2023-01-24T15:37:01.708Z,10.75
2023-01-24T15:38:41.349Z,11.50
2023-01-24T15:40:20.690Z,11.38
2023-01-24T15:42:11.164Z,10.52
2023-01-24T15:43:51.383Z,10.85
2023-01-24T15:45:23.175Z,10.73
2023-01-24T15:47:14.855Z,11.40
2023-01-24T15:48:58.229Z,10.35
2023-01-24T15:50:48.833Z,12.13
2023-01-24T15:52:23.029Z,10.18
2023-01-24T15:53:55.825Z,12.25
2023-01-24T15:55:28.525Z,12.98
2023-01-24T15:57:03.909Z,10.82
2023-01-24T15:58:36.801Z,11.70
2023-01-24T16:00:26.135Z,10.93
2023-01-24T16:01:58.923Z,10.10
2023-01-24T16:03:31.724Z,10.68
2023-01-24T16:05:12.765Z,12.95
2023-01-24T16:06:45.904Z,14.50
2023-01-24T16:08:19.249Z,12.48
2023-01-24T16:09:55.693Z,11.75
2023-01-24T16:11:28.482Z,11.50
2023-01-24T16:13:01.222Z,11.05
2023-01-24T16:14:34.151Z,12.15
2023-01-24T16:16:12.436Z,11.13
2023-01-24T16:17:45.172Z,12.45
2023-01-24T16:19:20.681Z,10.63
2023-01-24T16:20:53.501Z,11.43
2023-01-24T16:22:26.204Z,10.07
2023-01-24T16:23:58.940Z,10.68
2023-01-24T16:25:31.654Z,11.20
2023-01-24T16:27:05.303Z,10.82
2023-01-24T16:28:38.877Z,10.57
2023-01-24T16:30:16.796Z,10.68
2023-01-24T16:31:51.053Z,11.70
2023-01-24T16:33:24.676Z,9.90
2023-01-24T16:34:57.396Z,9.23
2023-01-24T16:36:30.080Z,10.77
2023-01-24T16:38:05.044Z,10.48
2023-01-24T16:39:37.768Z,10.48
2023-01-24T16:41:10.469Z,11.40
2023-01-24T16:42:45.502Z,10.93
2023-01-24T16:44:18.755Z,10.82
2023-01-24T16:45:53.325Z,10.23
2023-01-24T16:47:28.925Z,10.38
2023-01-24T16:49:01.679Z,11.10
2023-01-24T16:50:34.378Z,10.32
2023-01-24T16:52:18.779Z,11.00
2023-01-24T16:53:55.345Z,10.93
2023-01-24T16:55:30.393Z,10.50
2023-01-24T16:57:03.302Z,10.75
2023-01-24T16:58:36.729Z,10.27
2023-01-24T17:00:13.496Z,10.00
2023-01-24T17:01:46.514Z,10.55
2023-01-24T17:03:21.647Z,9.80
2023-01-24T17:04:54.342Z,10.25
2023-01-24T17:06:27.073Z,10.30
2023-01-24T17:08:00.051Z,10.07
2023-01-24T17:09:33.008Z,10.20
2023-01-24T17:11:06.947Z,10.52
2023-01-24T17:12:39.670Z,10.57
2023-01-24T17:14:12.431Z,11.15
2023-01-24T17:15:45.269Z,11.65
2023-01-24T17:17:18.102Z,11.77
2023-01-24T17:18:52.185Z,10.82
2023-01-24T17:20:24.932Z,10.77
2023-01-24T17:21:57.689Z,10.45
2023-01-24T17:23:30.452Z,10.73
2023-01-24T17:25:03.381Z,10.55
2023-01-24T17:26:36.173Z,11.30
2023-01-24T17:28:08.874Z,10.82
2023-01-24T17:29:41.542Z,11.23
2023-01-24T17:31:16.000Z,11.05
2023-01-24T17:32:49.324Z,10.75
2023-01-24T17:34:24.017Z,11.63
2023-01-24T17:35:58.784Z,10.98
2023-01-24T17:37:31.538Z,11.32
2023-01-24T17:39:04.479Z,10.60
2023-01-24T17:40:37.155Z,10.63
2023-01-24T17:42:09.873Z,10.48
2023-01-24T17:43:52.282Z,10.70
2023-01-24T17:45:25.501Z,11.45
2023-01-24T17:46:58.295Z,11.32
2023-01-24T17:48:31.365Z,12.80
2023-01-24T17:50:06.414Z,13.50
2023-01-24T17:51:39.388Z,11.35
2023-01-24T17:53:12.179Z,11.20
2023-01-24T17:54:45.617Z,12.77
2023-01-24T17:56:19.416Z,11.95
2023-01-24T17:57:52.153Z,11.43
2023-01-24T17:59:24.883Z,11.60
2023-01-24T18:00:57.760Z,12.57
2023-01-24T18:02:30.498Z,11.32
2023-01-24T18:04:04.794Z,11.18
2023-01-24T18:05:40.795Z,11.18
2023-01-24T18:07:13.465Z,11.73
2023-01-24T18:08:47.758Z,11.75
2023-01-24T18:10:20.616Z,11.45
2023-01-24T18:11:53.312Z,12.07
2023-01-24T18:13:26.093Z,11.25
2023-01-24T18:14:58.774Z,12.07
2023-01-24T18:16:31.854Z,11.68
2023-01-24T18:18:05.001Z,12.13
2023-01-24T18:19:37.714Z,11.75
2023-01-24T18:21:13.808Z,12.52
2023-01-24T18:22:46.492Z,12.70
2023-01-24T18:24:19.214Z,11.48
2023-01-24T18:25:51.903Z,11.98
2023-01-24T18:27:24.779Z,12.10
2023-01-24T18:28:58.311Z,12.15
2023-01-24T18:30:31.155Z,12.98
2023-01-24T18:32:03.935Z,11.63
2023-01-24T18:33:37.001Z,12.45
2023-01-24T18:35:10.685Z,12.52
2023-01-24T18:36:44.777Z,13.40
2023-01-24T18:38:17.460Z,13.15
2023-01-24T18:39:50.655Z,13.90
2023-01-24T18:41:23.743Z,13.82
2023-01-24T18:42:56.433Z,13.80
2023-01-24T18:44:29.107Z,12.77
2023-01-24T18:46:05.605Z,12.05
2023-01-24T18:47:38.360Z,12.60
2023-01-24T18:49:11.565Z,10.90
2023-01-24T18:50:44.253Z,12.82
2023-01-24T18:52:18.349Z,14.95
2023-01-24T18:53:54.218Z,14.02
2023-01-24T18:55:26.896Z,13.73
2023-01-24T18:57:01.588Z,13.98
2023-01-24T18:58:36.671Z,13.38
2023-01-24T19:00:10.717Z,11.35
2023-01-24T19:01:43.886Z,12.15
2023-01-24T19:03:16.568Z,11.80
2023-01-24T19:04:49.278Z,11.50
2023-01-24T19:06:26.181Z,12.48
2023-01-24T19:08:00.208Z,11.95
2023-01-24T19:09:33.657Z,13.02
2023-01-24T19:11:14.303Z,12.48
2023-01-24T19:12:47.023Z,14.10
2023-01-24T19:14:20.151Z,12.48
2023-01-24T19:16:00.430Z,12.80
2023-01-24T19:17:33.460Z,13.35
2023-01-24T19:19:06.323Z,12.35
2023-01-24T19:20:39.094Z,12.25
2023-01-24T19:22:12.007Z,13.20
2023-01-24T19:23:47.685Z,12.25
2023-01-24T19:25:20.635Z,12.73
2023-01-24T19:26:53.378Z,13.10
2023-01-24T19:28:26.078Z,13.05
2023-01-24T19:29:58.823Z,13.48
2023-01-24T19:31:32.517Z,13.43
2023-01-24T19:33:05.298Z,14.30
2023-01-24T19:34:38.015Z,13.32
2023-01-24T19:36:11.429Z,14.20
2023-01-24T19:37:44.200Z,12.50
2023-01-24T19:39:20.540Z,13.15
2023-01-24T19:40:53.267Z,12.73
2023-01-24T19:42:25.972Z,11.90
2023-01-24T19:45:59.107Z,13.05
2023-01-24T19:47:35.001Z,12.70
2023-01-24T19:49:07.733Z,13.10
2023-01-24T19:50:42.610Z,12.60
2023-01-24T19:53:53.007Z,12.55
2023-01-24T19:55:27.072Z,12.50
2023-01-24T19:56:59.965Z,12.98
2023-01-24T19:58:33.597Z,12.90
2023-01-24T20:00:10.128Z,12.20
2023-01-24T20:01:42.911Z,12.85
2023-01-24T20:03:15.636Z,12.05
2023-01-24T20:04:52.302Z,13.02
2023-01-24T20:06:26.565Z,13.10
2023-01-24T20:07:59.674Z,12.32
2023-01-24T20:09:32.957Z,12.65
2023-01-24T20:11:08.751Z,11.93
2023-01-24T20:12:42.479Z,11.80
2023-01-24T20:14:15.223Z,12.52
2023-01-24T20:15:47.917Z,12.05
2023-01-24T20:17:20.637Z,12.00
2023-01-24T20:18:56.017Z,12.85
2023-01-24T20:20:28.733Z,14.07
2023-01-24T20:22:01.546Z,13.55
2023-01-24T20:23:34.262Z,12.63
2023-01-24T20:25:17.871Z,11.77
2023-01-24T20:26:53.634Z,11.90
2023-01-24T20:28:26.325Z,12.68
2023-01-24T20:29:59.033Z,10.90
2023-01-24T20:31:32.115Z,11.25
2023-01-24T20:33:05.008Z,12.40
2023-01-24T20:34:39.727Z,11.88
2023-01-24T20:36:13.917Z,11.27
2023-01-24T20:37:46.620Z,12.00
2023-01-24T20:39:19.996Z,13.45
2023-01-24T20:40:57.308Z,12.35
2023-01-24T20:42:31.525Z,12.77
2023-01-24T20:44:04.446Z,13.00
2023-01-24T20:45:38.503Z,12.50
2023-01-24T20:47:12.179Z,11.60
2023-01-24T20:48:44.876Z,11.88
2023-01-24T20:50:18.018Z,12.30
2023-01-24T20:51:50.760Z,12.48